Time;durP1;ratioP1;P1;durP2;ratioP2;P2;SDS_P1;SDS_P2;PMS_P1;PMS_P2;Temp;Humidity;BMP_temperature;BMP_pressure;BME280_temperature;BME280_humidity;BME280_pressure;Samples;Min_cycle;Max_cycle;Signal;HPM_P1;HPM_P2
2021/12/22 00:00:37;;;;;;;32.10;15.52;;;-1.40;99.90;;;;;;5100957;27;20122;-88
2021/12/22 00:03:05;;;;;;;37.80;17.02;;;-2.10;99.90;;;;;;5094789;28;20043;-88
2021/12/22 00:05:31;;;;;;;30.90;15.98;;;-2.10;99.90;;;;;;5123699;27;20156;-89
2021/12/22 00:07:58;;;;;;;34.30;16.40;;;-2.10;99.90;;;;;;5074582;27;20205;-88
2021/12/22 00:10:24;;;;;;;31.95;16.10;;;-2.10;99.90;;;;;;5092358;27;20078;-88
2021/12/22 00:12:51;;;;;;;32.25;16.40;;;-2.20;99.90;;;;;;5093288;27;20068;-88
2021/12/22 00:15:17;;;;;;;33.20;15.88;;;-2.20;99.90;;;;;;5116858;27;20047;-88
2021/12/22 00:17:43;;;;;;;30.63;15.27;;;-2.20;99.90;;;;;;5109954;27;20039;-89
2021/12/22 00:20:11;;;;;;;28.27;14.68;;;-2.20;99.90;;;;;;5110496;27;20058;-89
2021/12/22 00:22:36;;;;;;;30.35;17.00;;;-2.20;99.90;;;;;;5111248;27;20054;-89
2021/12/22 00:25:03;;;;;;;32.95;15.02;;;-1.60;99.90;;;;;;5111958;27;20278;-90
2021/12/22 00:27:29;;;;;;;29.35;15.48;;;-2.30;99.90;;;;;;5110398;27;20289;-89
2021/12/22 00:29:54;;;;;;;27.77;14.93;;;-2.30;99.90;;;;;;5103266;27;20043;-89
2021/12/22 00:32:21;;;;;;;28.10;15.00;;;-2.30;99.90;;;;;;5086191;28;20043;-89
2021/12/22 00:34:52;;;;;;;34.17;15.85;;;-2.30;99.90;;;;;;5119817;27;20045;-90
2021/12/22 00:37:22;;;;;;;30.42;14.93;;;-2.30;99.90;;;;;;5118986;27;20453;-90
2021/12/22 00:39:48;;;;;;;27.70;13.82;;;-2.30;99.90;;;;;;5086919;27;20054;-89
2021/12/22 00:42:14;;;;;;;28.42;15.25;;;-2.40;99.90;;;;;;5094904;27;20551;-89
2021/12/22 00:44:41;;;;;;;32.13;16.50;;;-2.40;99.90;;;;;;5118781;27;20134;-90
2021/12/22 00:47:08;;;;;;;27.75;16.05;;;-2.40;99.90;;;;;;5070849;28;20126;-90
2021/12/22 00:49:34;;;;;;;36.15;14.95;;;-2.40;99.90;;;;;;5083825;27;20043;-90
2021/12/22 00:52:01;;;;;;;32.20;15.50;;;-2.40;99.90;;;;;;5107235;27;20444;-89
2021/12/22 00:54:26;;;;;;;30.15;15.75;;;-2.50;99.90;;;;;;5089632;27;20039;-90
2021/12/22 00:56:55;;;;;;;31.38;16.35;;;-2.50;99.90;;;;;;5089305;27;20058;-90
2021/12/22 00:59:21;;;;;;;28.02;15.07;;;-2.60;99.90;;;;;;5106711;27;20048;-89
2021/12/22 01:01:47;;;;;;;31.48;15.30;;;-2.60;99.90;;;;;;5090831;27;20092;-90
2021/12/22 01:04:13;;;;;;;37.22;16.75;;;-2.60;99.90;;;;;;5103691;28;20051;-89
2021/12/22 01:06:39;;;;;;;31.60;16.80;;;-2.60;99.90;;;;;;5082704;27;20085;-88
2021/12/22 01:09:05;;;;;;;33.15;16.30;;;-2.60;99.90;;;;;;5090979;27;20134;-89
2021/12/22 01:11:31;;;;;;;40.78;17.30;;;-2.70;99.90;;;;;;5125011;27;20515;-89
2021/12/22 01:13:57;;;;;;;32.38;16.00;;;-2.70;99.90;;;;;;5091430;27;20035;-90
2021/12/22 01:16:23;;;;;;;33.05;15.70;;;-2.70;99.90;;;;;;5090156;27;20129;-89
2021/12/22 01:18:49;;;;;;;33.03;16.23;;;-2.70;99.90;;;;;;5107095;27;20134;-89
2021/12/22 01:21:21;;;;;;;30.65;15.15;;;-2.70;99.90;;;;;;5091397;27;20047;-90
2021/12/22 01:24:00;;;;;;;26.05;14.38;;;-2.70;99.90;;;;;;5125055;27;20441;-86
2021/12/22 01:26:31;;;;;;;26.80;14.75;;;-2.70;99.90;;;;;;5090576;27;20042;-89
2021/12/22 01:28:57;;;;;;;31.50;15.10;;;-2.70;99.90;;;;;;5090750;27;20043;-89
2021/12/22 01:31:23;;;;;;;30.92;15.57;;;-2.40;99.90;;;;;;5107204;27;20632;-89
2021/12/22 01:33:49;;;;;;;37.60;16.00;;;-2.70;99.90;;;;;;5106051;27;20058;-89
2021/12/22 01:36:15;;;;;;;32.13;15.40;;;-2.60;99.90;;;;;;5114920;27;20050;-89
2021/12/22 01:38:40;;;;;;;27.92;15.02;;;-2.70;99.90;;;;;;5102043;28;20043;-90
2021/12/22 01:41:07;;;;;;;26.48;14.73;;;-2.70;99.90;;;;;;5092394;27;20067;-89
2021/12/22 01:43:32;;;;;;;32.00;15.50;;;-2.70;99.90;;;;;;5098961;27;20057;-89
2021/12/22 01:52:00;;;;;;;28.38;13.90;;;-2.70;99.90;;;;;;5105015;27;20411;-89
2021/12/22 01:54:34;;;;;;;31.50;13.90;;;-2.80;99.90;;;;;;5090292;27;20043;-90
2021/12/22 01:57:06;;;;;;;23.73;14.02;;;-2.80;99.90;;;;;;5099649;27;20494;-90
2021/12/22 01:59:32;;;;;;;33.03;14.55;;;-2.80;99.90;;;;;;5077301;28;20915;-90
2021/12/22 02:01:59;;;;;;;25.52;13.52;;;-2.90;99.90;;;;;;5080966;27;20043;-89
2021/12/22 02:04:25;;;;;;;26.17;13.27;;;-2.90;99.90;;;;;;5094835;27;20051;-90
2021/12/22 02:06:50;;;;;;;30.83;16.42;;;-3.00;99.90;;;;;;5124357;27;20286;-90
2021/12/22 02:10:03;;;;;;;25.02;13.77;;;-3.00;99.90;;;;;;5104745;27;20043;-90
2021/12/22 02:12:11;;;;;;;24.95;13.43;;;-3.00;99.90;;;;;;5107954;27;20088;-89
2021/12/22 02:14:37;;;;;;;28.30;14.77;;;-3.00;99.90;;;;;;5100411;27;20132;-90
2021/12/22 02:17:07;;;;;;;28.45;14.15;;;-3.10;99.90;;;;;;5109914;27;20044;-89
2021/12/22 02:19:46;;;;;;;27.25;14.05;;;-3.10;99.90;;;;;;5086286;27;20550;-89
2021/12/22 02:22:15;;;;;;;32.65;14.63;;;-3.10;99.90;;;;;;5117418;27;20050;-89
2021/12/22 02:24:51;;;;;;;29.80;14.63;;;-3.10;99.90;;;;;;5092740;27;20516;-89
2021/12/22 02:27:33;;;;;;;34.08;14.65;;;-3.10;99.90;;;;;;5122809;27;20047;-89
2021/12/22 02:30:03;;;;;;;26.63;13.70;;;-3.10;99.90;;;;;;5103957;27;20179;-89
2021/12/22 02:35:04;;;;;;;27.10;14.55;;;-3.20;99.90;;;;;;5110059;27;20043;-89
2021/12/22 02:37:31;;;;;;;26.23;14.48;;;-3.20;99.90;;;;;;5126985;27;20051;-89
2021/12/22 02:40:00;;;;;;;31.90;14.35;;;-3.20;99.90;;;;;;5098518;27;20103;-89
2021/12/22 02:42:30;;;;;;;27.17;14.18;;;-3.20;99.90;;;;;;5099280;27;20039;-88
2021/12/22 02:45:09;;;;;;;27.08;13.98;;;-3.20;99.90;;;;;;5092642;27;20051;-89
2021/12/22 02:47:35;;;;;;;24.75;13.63;;;-3.20;99.90;;;;;;5090154;28;20039;-89
2021/12/22 02:50:01;;;;;;;30.63;14.60;;;-3.00;99.90;;;;;;5101738;27;20095;-89
2021/12/22 02:52:34;;;;;;;28.45;14.63;;;-3.20;99.90;;;;;;5130358;27;20051;-89
2021/12/22 02:55:01;;;;;;;29.38;14.30;;;-3.30;99.90;;;;;;5116202;27;20061;-89
2021/12/22 02:57:33;;;;;;;26.15;13.63;;;-3.30;99.90;;;;;;5091031;27;20035;-89
2021/12/22 03:02:58;;;;;;;27.85;13.68;;;-3.30;99.90;;;;;;5106070;27;20042;-88
2021/12/22 03:05:24;;;;;;;28.63;13.95;;;-3.30;99.90;;;;;;5091660;28;20073;-89
2021/12/22 03:07:50;;;;;;;26.23;12.98;;;-3.30;99.90;;;;;;5110048;28;20035;-88
2021/12/22 03:10:18;;;;;;;26.20;13.77;;;-3.40;99.90;;;;;;5092402;28;20058;-87
2021/12/22 03:12:47;;;;;;;30.85;14.20;;;-3.40;99.90;;;;;;5092395;28;20459;-88
2021/12/22 03:15:13;;;;;;;25.20;13.85;;;-3.30;99.90;;;;;;5091276;28;20056;-88
2021/12/22 03:17:39;;;;;;;27.15;13.73;;;-3.40;99.90;;;;;;5097685;27;20330;-88
2021/12/22 03:20:10;;;;;;;27.75;13.55;;;-3.30;99.90;;;;;;5112661;27;20039;-88
2021/12/22 03:22:36;;;;;;;28.60;14.13;;;-3.30;99.90;;;;;;5099772;28;20360;-88
2021/12/22 03:25:13;;;;;;;26.77;13.15;;;-3.40;99.90;;;;;;5092053;28;20414;-88
2021/12/22 03:27:40;;;;;;;30.10;14.88;;;-3.40;99.90;;;;;;5078562;28;20118;-85
2021/12/22 03:30:09;;;;;;;24.65;13.82;;;-3.40;99.90;;;;;;5109306;28;20138;-88
2021/12/22 03:32:34;;;;;;;26.15;13.38;;;-3.40;99.90;;;;;;5091897;28;20042;-87
2021/12/22 03:35:00;;;;;;;28.55;13.93;;;-3.50;99.90;;;;;;5108406;28;20047;-87
2021/12/22 03:37:26;;;;;;;25.58;12.90;;;-3.50;99.90;;;;;;5108498;28;20104;-87
2021/12/22 03:39:52;;;;;;;29.63;13.63;;;-3.50;99.90;;;;;;5092231;28;20395;-87
2021/12/22 03:42:18;;;;;;;26.02;14.30;;;-3.50;99.90;;;;;;5113346;27;20051;-87
2021/12/22 03:44:43;;;;;;;27.30;13.93;;;-3.60;99.90;;;;;;5090591;28;20031;-86
2021/12/22 03:47:09;;;;;;;28.25;15.25;;;-3.60;99.90;;;;;;5097198;27;20039;-89
2021/12/22 03:49:35;;;;;;;29.08;14.43;;;-3.60;99.90;;;;;;5094273;28;20037;-89
2021/12/22 03:52:02;;;;;;;29.48;14.23;;;-3.60;99.90;;;;;;5111555;28;20103;-88
2021/12/22 03:54:27;;;;;;;29.33;14.13;;;-3.60;99.90;;;;;;5109893;28;20039;-87
2021/12/22 03:56:53;;;;;;;27.60;13.55;;;-3.60;99.90;;;;;;5093054;28;20069;-87
2021/12/22 03:59:19;;;;;;;35.60;14.77;;;-3.60;99.90;;;;;;5108470;28;20031;-87
2021/12/22 04:01:46;;;;;;;25.23;14.10;;;-3.60;99.90;;;;;;5110961;27;20088;-87
2021/12/22 04:04:15;;;;;;;25.27;13.38;;;-3.60;99.90;;;;;;5109815;28;20055;-88
2021/12/22 04:06:43;;;;;;;32.53;14.80;;;-3.60;99.90;;;;;;5094382;27;20047;-87
2021/12/22 04:09:09;;;;;;;31.42;15.43;;;-3.60;99.90;;;;;;5096734;27;20047;-87
2021/12/22 04:11:35;;;;;;;28.90;14.75;;;-3.60;99.90;;;;;;5095788;27;20039;-87
2021/12/22 04:14:01;;;;;;;29.50;15.07;;;-3.60;99.90;;;;;;5112425;27;20039;-87
2021/12/22 04:16:27;;;;;;;31.73;15.10;;;-3.60;99.90;;;;;;5097144;27;20506;-87
2021/12/22 04:18:53;;;;;;;31.85;14.13;;;-3.60;99.90;;;;;;5125718;27;20043;-86
2021/12/22 04:21:19;;;;;;;31.05;15.43;;;-3.50;99.90;;;;;;5116196;27;20050;-86
2021/12/22 04:23:45;;;;;;;37.47;18.40;;;-3.50;99.90;;;;;;5133355;27;20491;-86
2021/12/22 04:26:12;;;;;;;32.08;15.50;;;-3.50;99.90;;;;;;5119833;27;20489;-85
2021/12/22 04:28:42;;;;;;;32.35;14.20;;;-3.50;99.90;;;;;;5112123;27;20043;-87
2021/12/22 04:31:07;;;;;;;39.50;16.23;;;-3.50;99.90;;;;;;5098668;27;20072;-86
2021/12/22 04:33:33;;;;;;;30.23;15.60;;;-3.50;99.90;;;;;;5131414;27;20537;-86
2021/12/22 04:35:59;;;;;;;32.03;15.88;;;-3.50;99.90;;;;;;5105230;27;20039;-86
2021/12/22 04:38:25;;;;;;;35.80;16.23;;;-3.50;99.90;;;;;;5107875;28;20044;-86
2021/12/22 04:40:51;;;;;;;40.10;17.02;;;-3.50;99.90;;;;;;5091529;28;20040;-86
2021/12/22 04:43:17;;;;;;;31.55;15.32;;;-3.50;99.90;;;;;;5090783;28;20055;-86
2021/12/22 04:45:43;;;;;;;32.83;16.55;;;-3.50;99.90;;;;;;5080873;27;20046;-86
2021/12/22 04:48:10;;;;;;;30.38;15.27;;;-3.50;99.90;;;;;;5112194;27;20050;-86
2021/12/22 04:50:36;;;;;;;31.73;14.20;;;-3.50;99.90;;;;;;5106270;27;20038;-86
2021/12/22 04:53:18;;;;;;;32.67;16.70;;;-3.60;99.90;;;;;;5115337;27;20514;-86
2021/12/22 04:55:43;;;;;;;38.55;17.15;;;-3.50;99.90;;;;;;5114923;27;20058;-85
2021/12/22 04:58:10;;;;;;;30.85;16.23;;;-3.60;99.90;;;;;;5095207;27;20047;-85
2021/12/22 05:00:37;;;;;;;30.58;15.32;;;-3.60;99.90;;;;;;5108397;28;20085;-85
2021/12/22 05:03:03;;;;;;;29.92;15.55;;;-3.60;99.90;;;;;;5125496;27;20138;-85
2021/12/22 05:05:29;;;;;;;27.90;14.13;;;-3.60;99.90;;;;;;5118008;27;20039;-85
2021/12/22 05:07:56;;;;;;;31.50;14.73;;;-3.50;99.90;;;;;;5094619;27;20047;-85
2021/12/22 05:10:24;;;;;;;32.08;15.30;;;-3.60;99.90;;;;;;5093692;27;20039;-85
2021/12/22 05:12:51;;;;;;;35.17;15.25;;;-3.60;99.90;;;;;;5110540;27;20134;-86
2021/12/22 05:15:22;;;;;;;32.67;16.63;;;-3.60;99.90;;;;;;5110370;27;20051;-85
2021/12/22 05:18:47;;;;;;;32.83;15.95;;;-3.60;99.90;;;;;;5092129;27;20047;-85
2021/12/22 05:20:35;;;;;;;40.90;17.55;;;-3.60;99.90;;;;;;5080206;27;20123;-84
2021/12/22 05:23:01;;;;;;;32.97;14.85;;;-3.60;99.90;;;;;;5106935;27;20085;-84
2021/12/22 05:25:27;;;;;;;32.80;15.65;;;-3.60;99.90;;;;;;5127213;27;20043;-84
2021/12/22 05:27:52;;;;;;;32.85;15.00;;;-3.60;99.90;;;;;;5096181;27;20047;-85
2021/12/22 05:30:18;;;;;;;33.30;15.77;;;-3.60;99.90;;;;;;5078747;27;20438;-85
2021/12/22 05:32:44;;;;;;;33.08;14.88;;;-3.50;99.90;;;;;;5105080;27;20403;-85
2021/12/22 05:35:11;;;;;;;30.85;15.07;;;-3.60;99.90;;;;;;5095832;27;20043;-84
2021/12/22 05:37:37;;;;;;;31.45;14.23;;;-3.60;99.90;;;;;;5113483;27;20050;-86
2021/12/22 05:40:04;;;;;;;32.75;15.10;;;-3.60;99.90;;;;;;5093752;27;20800;-85
2021/12/22 05:42:29;;;;;;;34.83;15.32;;;-3.60;99.90;;;;;;5092393;27;20047;-85
2021/12/22 05:44:55;;;;;;;36.28;16.73;;;-3.60;99.90;;;;;;5094222;27;20569;-84
2021/12/22 05:47:21;;;;;;;37.00;16.13;;;-3.70;99.90;;;;;;5109170;27;20522;-84
2021/12/22 05:49:48;;;;;;;32.47;15.07;;;-3.70;99.90;;;;;;5108073;27;20050;-85
2021/12/22 05:52:14;;;;;;;32.22;14.73;;;-3.70;99.90;;;;;;5110050;27;20047;-85
2021/12/22 05:54:40;;;;;;;33.40;15.30;;;-3.70;99.90;;;;;;5114583;27;20045;-85
2021/12/22 05:57:06;;;;;;;32.00;15.52;;;-3.70;99.90;;;;;;5093199;27;20043;-85
2021/12/22 05:59:32;;;;;;;32.45;15.25;;;-3.70;99.90;;;;;;5090214;27;20492;-84
2021/12/22 06:01:57;;;;;;;32.38;16.02;;;-3.70;99.90;;;;;;5107181;28;20515;-84
2021/12/22 06:04:23;;;;;;;31.85;15.20;;;-3.70;99.90;;;;;;5090328;28;20043;-85
2021/12/22 06:06:48;;;;;;;32.38;15.20;;;-3.60;99.90;;;;;;5101119;27;20467;-85
2021/12/22 06:09:14;;;;;;;33.97;15.52;;;-3.80;99.90;;;;;;5093534;27;20047;-85
2021/12/22 06:11:40;;;;;;;27.40;15.10;;;-3.80;99.90;;;;;;5110242;27;20039;-84
2021/12/22 06:14:06;;;;;;;33.97;15.38;;;-3.80;99.90;;;;;;5110479;27;20047;-84
2021/12/22 06:16:31;;;;;;;38.63;15.85;;;-3.80;99.90;;;;;;5090551;27;20479;-85
2021/12/22 06:19:02;;;;;;;34.47;15.95;;;-3.80;99.90;;;;;;5097963;28;20052;-84
2021/12/22 06:21:28;;;;;;;30.98;15.43;;;-3.80;99.90;;;;;;5118930;27;20047;-84
2021/12/22 06:23:53;;;;;;;29.65;15.20;;;-3.80;99.90;;;;;;5113325;27;20062;-84
2021/12/22 06:26:19;;;;;;;31.77;16.17;;;-3.70;99.90;;;;;;5119166;27;20442;-84
2021/12/22 06:28:45;;;;;;;33.22;15.40;;;-3.80;99.90;;;;;;5087191;28;20040;-84
2021/12/22 06:31:10;;;;;;;32.95;16.00;;;-3.80;99.90;;;;;;5072990;28;20496;-84
2021/12/22 06:33:36;;;;;;;37.10;15.60;;;-3.80;99.90;;;;;;5071620;28;20036;-84
2021/12/22 06:36:02;;;;;;;39.17;16.77;;;-3.80;99.90;;;;;;5084450;28;20652;-84
2021/12/22 06:38:28;;;;;;;30.73;14.98;;;-3.80;99.90;;;;;;5108521;27;20047;-84
2021/12/22 06:40:54;;;;;;;33.97;15.68;;;-3.70;99.90;;;;;;5101908;28;20573;-84
2021/12/22 06:43:19;;;;;;;34.35;16.50;;;-3.80;99.90;;;;;;5092362;27;20065;-84
2021/12/22 06:45:45;;;;;;;33.33;16.10;;;-3.80;99.90;;;;;;5100258;27;20507;-84
2021/12/22 06:48:11;;;;;;;29.55;15.25;;;-3.80;99.90;;;;;;5118029;27;20138;-85
2021/12/22 06:50:36;;;;;;;31.48;14.85;;;-3.70;99.90;;;;;;5088806;28;20099;-84
2021/12/22 06:53:02;;;;;;;34.45;16.13;;;-3.80;99.90;;;;;;5080886;27;20066;-85
2021/12/22 06:55:28;;;;;;;33.90;15.90;;;-3.70;99.90;;;;;;5090778;27;20058;-84
2021/12/22 06:57:54;;;;;;;36.10;15.45;;;-3.80;99.90;;;;;;5081918;28;20047;-84
2021/12/22 07:00:20;;;;;;;32.28;16.02;;;-3.80;99.90;;;;;;5104870;27;20043;-85
2021/12/22 07:02:46;;;;;;;31.13;14.73;;;-3.80;99.90;;;;;;5101883;28;20042;-84
2021/12/22 07:05:12;;;;;;;33.55;16.27;;;-3.80;99.90;;;;;;5088542;28;20650;-85
2021/12/22 07:07:38;;;;;;;32.75;13.77;;;-3.80;99.90;;;;;;5090861;28;20118;-84
2021/12/22 07:10:07;;;;;;;31.35;14.60;;;-3.80;99.90;;;;;;5111373;28;20440;-84
2021/12/22 07:12:39;;;;;;;34.58;15.27;;;-3.80;99.90;;;;;;5093660;28;20058;-84
2021/12/22 07:15:05;;;;;;;33.08;16.15;;;-3.80;99.90;;;;;;5095449;28;20074;-84
2021/12/22 07:17:31;;;;;;;30.88;15.02;;;-3.80;99.90;;;;;;5108882;28;20034;-84
2021/12/22 07:19:57;;;;;;;30.20;15.55;;;-3.80;99.90;;;;;;5091984;28;20039;-84
2021/12/22 07:22:22;;;;;;;34.85;14.68;;;-3.80;99.90;;;;;;5101820;27;20038;-84
2021/12/22 07:24:48;;;;;;;37.55;15.32;;;-3.80;99.90;;;;;;5118326;28;20035;-84
2021/12/22 07:27:14;;;;;;;33.80;14.82;;;-3.40;99.90;;;;;;5070476;28;20083;-84
2021/12/22 07:29:41;;;;;;;36.50;16.02;;;-2.80;99.90;;;;;;5115525;28;20072;-85
2021/12/22 07:32:07;;;;;;;37.72;14.95;;;-3.80;99.90;;;;;;5104796;28;20053;-85
2021/12/22 07:34:41;;;;;;;32.70;14.45;;;-3.80;99.90;;;;;;5105452;28;20047;-84
2021/12/22 07:37:22;;;;;;;30.75;14.30;;;-3.70;99.90;;;;;;5102771;28;20046;-83
2021/12/22 07:39:48;;;;;;;27.98;11.75;;;-3.70;99.90;;;;;;5109350;28;20143;-86
2021/12/22 07:42:14;;;;;;;30.27;13.95;;;-3.70;99.90;;;;;;5093900;27;20055;-86
2021/12/22 07:44:40;;;;;;;29.83;14.65;;;-3.70;99.90;;;;;;5116474;27;20046;-86
2021/12/22 07:47:06;;;;;;;31.05;14.60;;;-3.70;99.90;;;;;;5099198;27;20057;-86
2021/12/22 07:49:31;;;;;;;33.53;14.27;;;-3.70;99.90;;;;;;5106745;28;20035;-83
2021/12/22 07:51:57;;;;;;;35.92;14.50;;;-3.70;99.90;;;;;;5109409;27;20047;-84
2021/12/22 07:54:23;;;;;;;32.75;13.50;;;-3.70;99.90;;;;;;5094839;27;20582;-84
2021/12/22 07:56:49;;;;;;;34.05;14.55;;;-3.70;99.90;;;;;;5092119;27;20027;-82
2021/12/22 07:59:14;;;;;;;32.55;13.50;;;-3.80;99.90;;;;;;5106147;27;20503;-82
2021/12/22 08:01:40;;;;;;;30.40;14.10;;;-3.70;99.90;;;;;;5101034;28;20114;-82
2021/12/22 08:04:06;;;;;;;33.10;13.02;;;-3.70;99.90;;;;;;5111906;27;20051;-82
2021/12/22 08:06:31;;;;;;;29.92;13.45;;;-3.70;99.90;;;;;;5107723;27;20042;-81
2021/12/22 08:08:57;;;;;;;34.35;15.45;;;-3.70;99.90;;;;;;5089646;27;20391;-82
2021/12/22 08:11:23;;;;;;;33.03;14.18;;;-3.70;99.90;;;;;;5082648;27;20046;-83
2021/12/22 08:13:48;;;;;;;30.25;14.05;;;-3.70;99.90;;;;;;5088659;27;20036;-82
2021/12/22 08:16:14;;;;;;;31.65;14.48;;;-3.60;99.90;;;;;;5105433;27;20073;-83
2021/12/22 08:18:40;;;;;;;29.27;14.48;;;-3.60;99.90;;;;;;5097570;27;20043;-83
2021/12/22 08:21:05;;;;;;;32.85;13.90;;;-3.60;99.90;;;;;;5106469;27;20126;-83
2021/12/22 08:23:31;;;;;;;31.77;14.63;;;-3.60;99.90;;;;;;5105113;27;20039;-83
2021/12/22 08:25:57;;;;;;;31.83;14.10;;;-3.50;99.90;;;;;;5094311;27;20047;-83
2021/12/22 08:28:23;;;;;;;30.95;13.98;;;-3.50;99.90;;;;;;5094342;27;20046;-82
2021/12/22 08:30:48;;;;;;;33.92;13.35;;;-3.40;99.90;;;;;;5093769;27;20387;-82
2021/12/22 08:33:21;;;;;;;30.20;14.45;;;-3.40;99.90;;;;;;5102878;27;20548;-82
2021/12/22 08:38:51;;;;;;;33.90;14.30;;;-3.30;99.90;;;;;;5120707;27;20098;-85
2021/12/22 08:41:30;;;;;;;31.00;14.60;;;-3.30;99.90;;;;;;5079289;27;20848;-84
2021/12/22 08:43:58;;;;;;;31.00;13.55;;;-3.20;99.90;;;;;;5101925;27;20043;-85
2021/12/22 08:46:24;;;;;;;34.17;15.50;;;-3.10;99.90;;;;;;5080939;27;20039;-86
2021/12/22 08:48:50;;;;;;;33.00;14.88;;;-3.10;99.90;;;;;;5089943;27;20153;-86
2021/12/22 08:51:16;;;;;;;28.17;13.35;;;-3.10;99.90;;;;;;5122127;27;20149;-86
2021/12/22 08:53:42;;;;;;;32.83;13.98;;;-3.00;99.90;;;;;;5083926;27;20101;-86
2021/12/22 08:56:08;;;;;;;27.42;13.25;;;-3.00;99.90;;;;;;5086525;27;20043;-85
2021/12/22 08:58:34;;;;;;;30.08;14.18;;;-2.90;99.90;;;;;;5101795;27;20038;-85
2021/12/22 09:01:00;;;;;;;28.85;13.80;;;-2.80;99.90;;;;;;5104387;27;20500;-84
2021/12/22 09:03:27;;;;;;;29.17;14.45;;;-2.80;99.90;;;;;;5086123;27;20039;-84
2021/12/22 09:05:53;;;;;;;29.60;14.07;;;-2.80;99.90;;;;;;5097236;27;20076;-85
2021/12/22 09:08:19;;;;;;;34.03;13.30;;;-2.70;99.90;;;;;;5108472;27;20141;-84
2021/12/22 09:10:45;;;;;;;26.50;13.07;;;-2.70;99.90;;;;;;5120758;27;20090;-87
2021/12/22 09:13:13;;;;;;;30.10;13.88;;;-2.70;99.90;;;;;;5097772;27;20054;-86
2021/12/22 09:15:39;;;;;;;39.33;15.68;;;-2.70;99.90;;;;;;5122726;27;20532;-87
2021/12/22 09:18:05;;;;;;;31.52;14.45;;;-2.60;99.90;;;;;;5115137;27;20095;-86
2021/12/22 09:20:30;;;;;;;29.52;14.75;;;-2.60;99.90;;;;;;5112727;27;20861;-87
2021/12/22 09:22:56;;;;;;;30.30;15.48;;;-2.60;99.90;;;;;;5110323;27;20100;-85
2021/12/22 09:25:22;;;;;;;30.60;14.85;;;-2.50;99.90;;;;;;5108926;27;20047;-86
2021/12/22 09:27:47;;;;;;;38.90;14.98;;;-2.50;99.90;;;;;;5090976;27;20054;-87
2021/12/22 09:30:13;;;;;;;29.90;13.77;;;-2.50;99.90;;;;;;5099951;27;20130;-87
2021/12/22 09:32:39;;;;;;;28.17;14.15;;;-2.40;99.90;;;;;;5096229;27;20038;-88
2021/12/22 09:35:06;;;;;;;28.95;14.02;;;-2.30;99.90;;;;;;5105536;27;20039;-86
2021/12/22 09:37:32;;;;;;;31.92;14.45;;;-2.30;99.90;;;;;;5083162;27;20089;-87
2021/12/22 09:39:58;;;;;;;27.20;13.52;;;-2.30;99.90;;;;;;5092296;27;20070;-87
2021/12/22 09:42:23;;;;;;;30.13;13.40;;;-2.20;99.90;;;;;;5118276;27;20095;-87
2021/12/22 09:44:50;;;;;;;30.70;15.00;;;-2.20;99.90;;;;;;5102814;27;20047;-87
2021/12/22 09:47:25;;;;;;;30.23;13.70;;;-2.10;99.90;;;;;;5093854;27;20049;-87
2021/12/22 09:50:11;;;;;;;30.27;14.48;;;-2.10;99.90;;;;;;5082518;27;20122;-87
2021/12/22 09:52:38;;;;;;;31.95;14.90;;;-2.00;99.90;;;;;;5087974;27;20039;-89
2021/12/22 09:55:07;;;;;;;30.05;14.45;;;-1.90;99.90;;;;;;5102159;27;20054;-87
2021/12/22 09:57:34;;;;;;;31.25;15.52;;;-1.90;99.90;;;;;;5084468;27;20051;-87
2021/12/22 10:00:00;;;;;;;32.92;15.45;;;-1.90;99.90;;;;;;5090873;27;20039;-87
2021/12/22 10:02:29;;;;;;;29.67;14.35;;;-1.80;99.90;;;;;;5101409;27;20529;-87
2021/12/22 10:04:59;;;;;;;31.38;14.10;;;-1.80;99.90;;;;;;5127728;27;20043;-88
2021/12/22 10:07:29;;;;;;;33.75;13.50;;;-1.80;99.90;;;;;;5108670;27;20055;-88
2021/12/22 10:10:02;;;;;;;29.95;13.55;;;-1.70;99.90;;;;;;5106294;27;20084;-86
2021/12/22 10:12:29;;;;;;;29.60;13.93;;;-1.70;99.90;;;;;;5109541;27;20077;-89
2021/12/22 10:14:59;;;;;;;29.88;13.35;;;-1.60;99.90;;;;;;5096581;27;20031;-91
2021/12/22 10:17:27;;;;;;;27.23;13.82;;;-1.50;99.90;;;;;;5113879;27;20424;-91
2021/12/22 10:20:00;;;;;;;28.52;13.52;;;-1.50;99.90;;;;;;5094179;27;20367;-86
2021/12/22 10:22:32;;;;;;;28.35;13.38;;;-1.50;99.90;;;;;;5102012;27;20415;-86
2021/12/22 10:25:10;;;;;;;27.27;14.45;;;-1.40;99.90;;;;;;5097194;27;20070;-86
2021/12/22 10:27:37;;;;;;;28.13;13.50;;;-1.40;99.90;;;;;;5102533;27;20069;-86
2021/12/22 10:30:21;;;;;;;29.08;13.60;;;-1.30;99.90;;;;;;5085074;27;20545;-87
2021/12/22 10:32:47;;;;;;;26.15;13.00;;;-1.30;99.90;;;;;;5117434;27;20653;-86
2021/12/22 10:35:13;;;;;;;30.77;13.38;;;-1.30;99.90;;;;;;5095193;27;20047;-86
2021/12/22 10:37:44;;;;;;;29.70;13.73;;;-1.20;99.90;;;;;;5067095;28;20047;-87
2021/12/22 10:40:46;;;;;;;26.90;12.80;;;-1.20;99.90;;;;;;5067055;28;20806;-86
2021/12/22 10:43:33;;;;;;;25.55;11.55;;;-1.20;99.90;;;;;;5086009;28;20844;-86
2021/12/22 10:46:01;;;;;;;27.75;12.30;;;-1.20;99.90;;;;;;5085925;28;20052;-86
2021/12/22 10:51:26;;;;;;;28.95;12.82;;;-1.10;99.90;;;;;;5083176;28;20053;-87
2021/12/22 10:53:53;;;;;;;29.63;12.25;;;-1.10;99.90;;;;;;5068481;28;20780;-87
2021/12/22 10:56:39;;;;;;;25.13;11.68;;;-1.10;99.90;;;;;;5083492;28;20071;-87
2021/12/22 10:59:17;;;;;;;26.85;13.80;;;-1.10;99.90;;;;;;5057363;28;20139;-86
2021/12/22 11:01:57;;;;;;;25.73;12.75;;;-1.10;99.90;;;;;;5101805;28;20043;-85
2021/12/22 11:04:30;;;;;;;20.33;10.65;;;-1.10;99.90;;;;;;5100302;28;20052;-86
2021/12/22 11:07:09;;;;;;;29.08;12.13;;;-1.10;99.90;;;;;;5096860;28;20070;-85
2021/12/22 11:09:36;;;;;;;34.65;12.65;;;-1.10;99.90;;;;;;5048910;28;20047;-86
2021/12/22 11:12:03;;;;;;;28.02;12.98;;;-1.10;99.90;;;;;;5058184;28;20083;-86
2021/12/22 11:14:33;;;;;;;25.90;12.30;;;-2.10;99.90;;;;;;5066910;28;20144;-85
2021/12/22 11:17:06;;;;;;;30.65;12.57;;;-1.10;99.90;;;;;;5087977;27;20099;-86
2021/12/22 11:20:06;;;;;;;26.10;12.73;;;-0.30;99.90;;;;;;5068589;28;20051;-86
2021/12/22 11:22:51;;;;;;;27.40;12.75;;;-1.10;99.90;;;;;;5080851;28;20048;-86
2021/12/22 11:25:16;;;;;;;28.75;12.25;;;-1.10;99.90;;;;;;5071685;28;20055;-86
2021/12/22 11:27:43;;;;;;;26.33;11.93;;;-1.10;99.90;;;;;;5088725;28;20032;-86
2021/12/22 11:30:09;;;;;;;26.90;12.25;;;-1.10;99.90;;;;;;5071690;27;20527;-86
2021/12/22 11:32:35;;;;;;;24.25;11.95;;;-1.10;99.90;;;;;;5107993;27;20691;-85
2021/12/22 11:35:07;;;;;;;26.58;13.02;;;-1.00;99.90;;;;;;5078649;28;20043;-87
2021/12/22 11:37:33;;;;;;;23.52;12.35;;;-1.00;99.90;;;;;;5070110;28;20075;-86
2021/12/22 11:40:01;;;;;;;25.17;12.40;;;-1.00;99.90;;;;;;5070011;28;20040;-86
2021/12/22 11:42:32;;;;;;;27.58;12.25;;;-0.90;99.90;;;;;;5070013;28;20048;-87
2021/12/22 11:45:19;;;;;;;24.40;13.00;;;-0.90;99.90;;;;;;5070861;28;20108;-86
2021/12/22 11:47:48;;;;;;;27.48;12.43;;;-0.10;99.90;;;;;;5071383;28;20047;-86
2021/12/22 11:50:30;;;;;;;28.00;12.32;;;-0.90;99.90;;;;;;5087994;27;20075;-86
2021/12/22 11:52:58;;;;;;;26.77;12.38;;;-0.90;99.90;;;;;;5088406;28;20044;-86
2021/12/22 11:55:28;;;;;;;28.50;12.85;;;-0.90;99.90;;;;;;5074332;28;20051;-86
2021/12/22 11:58:21;;;;;;;23.98;11.70;;;-0.90;99.90;;;;;;5073122;28;20051;-86
2021/12/22 12:01:10;;;;;;;23.90;12.30;;;-0.80;99.90;;;;;;5063532;28;20120;-86
2021/12/22 12:03:40;;;;;;;27.02;13.38;;;-0.80;99.90;;;;;;5091483;27;20078;-86
2021/12/22 12:06:13;;;;;;;27.17;12.60;;;-0.80;99.90;;;;;;5081519;28;20621;-88
2021/12/22 12:08:44;;;;;;;26.55;12.07;;;-0.80;99.90;;;;;;5062121;28;20396;-87
2021/12/22 12:11:42;;;;;;;24.85;12.23;;;-0.80;99.90;;;;;;5069115;28;20349;-86
2021/12/22 12:23:27;;;;;;;22.75;12.40;;;-0.70;99.90;;;;;;5087035;28;20058;-87
2021/12/22 12:25:54;;;;;;;26.88;13.57;;;-0.70;99.90;;;;;;5073345;28;20353;-87
2021/12/22 12:28:22;;;;;;;24.35;12.95;;;-0.70;99.90;;;;;;5087429;28;20062;-86
2021/12/22 12:30:51;;;;;;;30.90;13.02;;;-0.70;99.90;;;;;;5075542;27;20040;-86
2021/12/22 12:33:36;;;;;;;26.60;12.50;;;-0.70;99.90;;;;;;5080438;28;20519;-86
2021/12/22 12:36:08;;;;;;;26.45;12.18;;;-0.70;99.90;;;;;;5084775;27;20050;-90
2021/12/22 12:38:40;;;;;;;28.58;12.65;;;-0.70;99.90;;;;;;5114928;27;20137;-87
2021/12/22 12:41:13;;;;;;;25.02;12.65;;;-0.60;99.90;;;;;;5101982;27;20053;-86
2021/12/22 12:43:45;;;;;;;28.52;11.93;;;-0.60;99.90;;;;;;5106566;27;20052;-86
2021/12/22 12:46:24;;;;;;;25.75;12.98;;;-0.60;99.90;;;;;;5101601;27;20043;-88
2021/12/22 12:49:15;;;;;;;25.67;13.38;;;-0.60;99.90;;;;;;5108006;27;20119;-88
2021/12/22 12:51:49;;;;;;;23.67;11.88;;;-0.60;99.90;;;;;;5097795;27;20049;-86
2021/12/22 12:54:18;;;;;;;21.67;10.48;;;-0.60;99.90;;;;;;5091850;27;20051;-87
2021/12/22 12:56:57;;;;;;;25.20;12.20;;;-0.60;99.90;;;;;;5092253;27;20054;-86
2021/12/22 12:59:39;;;;;;;25.30;12.05;;;-0.60;99.90;;;;;;5107256;27;20118;-86
2021/12/22 13:02:05;;;;;;;24.98;11.13;;;-0.60;99.90;;;;;;5106933;27;20503;-86